Time;durP1;ratioP1;P1;durP2;ratioP2;P2;SDS_P1;SDS_P2;PMS_P1;PMS_P2;Temp;Humidity;BMP_temperature;BMP_pressure;BME280_temperature;BME280_humidity;BME280_pressure;Samples;Min_cycle;Max_cycle;Signal;HPM_P1;HPM_P2
2021/09/23 00:00:57;;;;;;;12.00;5.83;;;;;;;8.70;77.76;100583.80;126279;1099;104271;-79
2021/09/23 00:06:09;;;;;;;10.73;5.60;;;;;;;8.66;77.64;100590.59;126254;1098;104332;-78
2021/09/23 00:08:40;;;;;;;9.77;5.10;;;;;;;8.62;77.50;100586.95;126190;1099;104341;-79
2021/09/23 00:11:11;;;;;;;10.73;4.93;;;;;;;8.59;77.45;100588.55;126214;1099;104271;-79
2021/09/23 00:13:42;;;;;;;9.43;5.30;;;;;;;8.57;77.85;100588.48;125827;1099;104638;-79
2021/09/23 00:16:13;;;;;;;13.20;5.30;;;;;;;8.54;77.72;100579.58;126207;1099;104203;-80
2021/09/23 00:18:44;;;;;;;11.15;5.35;;;;;;;8.52;78.11;100591.70;126252;1099;104319;-81
2021/09/23 00:21:14;;;;;;;13.57;4.90;;;;;;;8.50;77.76;100594.24;126234;1099;104222;-79
2021/09/23 00:23:45;;;;;;;12.27;5.00;;;;;;;8.48;77.78;100581.91;125739;1099;104280;-79
2021/09/23 00:26:17;;;;;;;10.23;5.13;;;;;;;8.46;77.95;100592.30;126253;1099;104193;-80
2021/09/23 00:28:48;;;;;;;9.23;4.80;;;;;;;8.45;77.56;100585.30;126334;1099;104149;-79
2021/09/23 00:31:19;;;;;;;8.53;4.47;;;;;;;8.45;77.95;100586.19;126326;1099;104169;-79
2021/09/23 00:33:49;;;;;;;9.80;4.90;;;;;;;8.47;77.81;100594.10;126354;1099;104251;-79
2021/09/23 00:36:20;;;;;;;9.60;4.87;;;;;;;8.48;77.50;100582.83;126332;1099;104146;-80
2021/09/23 00:38:50;;;;;;;8.57;4.43;;;;;;;8.51;77.80;100589.89;126313;1099;105804;-78
2021/09/23 00:41:21;;;;;;;8.33;4.33;;;;;;;8.51;77.42;100592.52;126272;1099;104153;-78
2021/09/23 00:43:51;;;;;;;8.13;4.20;;;;;;;8.50;78.06;100589.02;126334;1099;104149;-79
2021/09/23 00:46:22;;;;;;;8.67;4.60;;;;;;;8.48;78.06;100601.13;126339;1098;104272;-80
2021/09/23 00:48:53;;;;;;;7.53;4.13;;;;;;;8.49;77.37;100586.33;126326;1099;104018;-81
2021/09/23 00:51:23;;;;;;;9.53;4.20;;;;;;;8.47;78.12;100585.38;126351;1099;104174;-79
2021/09/23 00:53:54;;;;;;;8.00;4.17;;;;;;;8.47;78.06;100586.26;126277;1099;104146;-79
2021/09/23 00:56:25;;;;;;;10.13;4.27;;;;;;;8.46;78.14;100584.45;126358;1099;104149;-80
2021/09/23 00:58:57;;;;;;;8.23;4.00;;;;;;;8.46;78.09;100584.45;126345;1099;104255;-80
2021/09/23 01:01:28;;;;;;;9.00;4.30;;;;;;;8.48;78.06;100580.21;126348;1099;104172;-79
2021/09/23 01:03:59;;;;;;;10.80;4.75;;;;;;;8.49;77.98;100592.44;126280;1099;104573;-78
2021/09/23 01:06:30;;;;;;;7.47;4.10;;;;;;;8.48;78.13;100584.52;126318;1099;104229;-79
2021/09/23 01:09:02;;;;;;;7.25;4.15;;;;;;;8.47;77.79;100588.88;126319;1099;104185;-81
2021/09/23 01:11:33;;;;;;;8.60;4.40;;;;;;;8.47;77.70;100588.88;126356;1099;104184;-80
2021/09/23 01:14:05;;;;;;;7.87;4.33;;;;;;;8.47;78.02;100588.88;126306;1099;104153;-80
2021/09/23 01:16:49;;;;;;;9.60;4.17;;;;;;;8.48;78.04;100593.29;126359;1099;104306;-80
2021/09/23 01:19:41;;;;;;;9.10;4.40;;;;;;;8.49;78.23;100592.44;126326;1098;104197;-79
2021/09/23 01:22:13;;;;;;;9.73;4.57;;;;;;;8.48;78.15;100595.91;126279;1099;104144;-80
2021/09/23 01:25:06;;;;;;;6.53;3.97;;;;;;;8.48;78.02;100593.29;126291;1099;104281;-79
2021/09/23 01:27:37;;;;;;;6.23;3.60;;;;;;;8.49;77.73;100595.05;126323;1097;104242;-80
2021/09/23 01:30:09;;;;;;;9.03;4.00;;;;;;;8.48;77.93;100585.45;126336;1099;104159;-81
2021/09/23 01:32:45;;;;;;;8.23;4.27;;;;;;;8.49;78.16;100587.21;126340;1099;104165;-79
2021/09/23 01:35:17;;;;;;;8.77;4.50;;;;;;;8.49;78.35;100587.21;126311;1099;104155;-79
2021/09/23 01:37:48;;;;;;;9.73;4.63;;;;;;;8.51;78.43;100584.66;126322;1098;104277;-79
2021/09/23 01:40:19;;;;;;;10.63;4.70;;;;;;;8.51;78.57;100589.89;126267;1099;104280;-81
2021/09/23 01:42:50;;;;;;;11.63;4.80;;;;;;;8.48;77.62;100588.06;126341;1099;104207;-80
2021/09/23 01:45:21;;;;;;;9.57;4.90;;;;;;;8.50;77.71;100585.52;126263;1099;104171;-81
2021/09/23 01:47:53;;;;;;;8.90;4.50;;;;;;;8.50;78.25;100590.74;126293;1099;104146;-79
2021/09/23 01:50:26;;;;;;;8.60;4.60;;;;;;;8.50;78.32;100589.02;126329;1099;104280;-80
2021/09/23 01:52:59;;;;;;;9.67;4.47;;;;;;;8.51;77.97;100589.89;126326;1099;104146;-80
2021/09/23 01:55:30;;;;;;;7.63;4.63;;;;;;;8.49;78.58;100589.83;126338;1099;104246;-81
2021/09/23 01:58:02;;;;;;;9.83;4.37;;;;;;;8.49;78.14;100581.98;126368;1099;104280;-82
2021/09/23 02:00:33;;;;;;;9.57;4.60;;;;;;;8.50;78.33;100586.39;126312;1097;104255;-80
2021/09/23 02:03:05;;;;;;;10.60;4.90;;;;;;;8.50;78.64;100588.12;126316;1099;104248;-80
2021/09/23 02:05:49;;;;;;;8.93;4.57;;;;;;;8.48;78.57;100590.67;126270;1099;104360;-79
2021/09/23 02:08:20;;;;;;;10.27;5.13;;;;;;;8.47;78.85;100583.64;126316;1099;104152;-79
2021/09/23 02:10:51;;;;;;;9.30;4.90;;;;;;;8.46;78.59;100579.22;126278;1098;104197;-80
2021/09/23 02:13:22;;;;;;;12.73;5.10;;;;;;;8.46;79.22;100581.84;126364;1099;104300;-80
2021/09/23 02:15:53;;;;;;;12.10;5.70;;;;;;;8.44;78.94;100580.89;126285;1098;104357;-80
2021/09/23 02:18:24;;;;;;;11.87;5.40;;;;;;;8.44;78.39;100583.50;126337;1099;104149;-80
2021/09/23 02:20:55;;;;;;;12.00;5.30;;;;;;;8.40;79.40;100582.45;126320;1099;104178;-80
2021/09/23 02:23:25;;;;;;;10.67;5.37;;;;;;;8.37;79.61;100577.08;126330;1099;104205;-80
2021/09/23 02:25:56;;;;;;;9.40;5.00;;;;;;;8.33;78.67;100584.70;126301;1099;104156;-78
2021/09/23 02:28:27;;;;;;;10.43;5.33;;;;;;;8.30;78.62;100587.17;126376;1099;104150;-78
2021/09/23 02:30:58;;;;;;;11.47;5.67;;;;;;;8.27;78.97;100586.22;126309;1099;104335;-79
2021/09/23 02:33:28;;;;;;;9.00;5.40;;;;;;;8.28;78.82;100579.27;126358;1099;104184;-79
2021/09/23 02:35:59;;;;;;;10.33;5.53;;;;;;;8.27;79.00;100574.84;126335;1097;104147;-81
2021/09/23 02:38:33;;;;;;;12.80;5.50;;;;;;;8.28;78.76;100581.88;126323;1099;104204;-80
2021/09/23 02:41:12;;;;;;;9.50;4.63;;;;;;;8.27;78.76;100580.08;126329;1098;104143;-81
2021/09/23 02:43:44;;;;;;;10.83;5.30;;;;;;;8.25;78.95;100581.73;126330;1099;104366;-80
2021/09/23 02:46:15;;;;;;;11.40;5.37;;;;;;;8.26;79.10;100587.03;126346;1099;104246;-80
2021/09/23 02:48:45;;;;;;;14.00;6.00;;;;;;;8.25;79.33;100584.35;126312;1098;104312;-80
2021/09/23 02:51:17;;;;;;;11.57;5.83;;;;;;;8.24;79.58;100579.94;126380;1099;104159;-80
2021/09/23 02:53:47;;;;;;;11.47;5.77;;;;;;;8.22;79.96;100585.09;126354;1099;104252;-79
2021/09/23 02:56:18;;;;;;;12.13;5.87;;;;;;;8.21;79.95;100585.94;126309;1099;104313;-79
2021/09/23 02:58:50;;;;;;;12.13;5.80;;;;;;;8.19;79.12;100584.95;126354;1099;104781;-80
2021/09/23 03:01:21;;;;;;;10.50;5.67;;;;;;;8.19;80.12;100584.95;126345;1099;104216;-81
2021/09/23 03:03:52;;;;;;;12.63;5.50;;;;;;;8.17;79.63;100583.99;126343;1099;104136;-80
2021/09/23 03:06:23;;;;;;;11.47;5.47;;;;;;;8.16;79.57;100581.31;126252;1099;104385;-79
2021/09/23 03:08:53;;;;;;;10.70;5.70;;;;;;;8.14;80.03;100578.63;126294;1099;104319;-79
2021/09/23 03:11:27;;;;;;;11.13;5.80;;;;;;;8.15;80.22;100583.03;126136;1099;104358;-80
2021/09/23 03:13:57;;;;;;;10.95;5.75;;;;;;;8.14;79.86;100583.84;126240;1097;104187;-80
2021/09/23 03:16:28;;;;;;;13.07;5.80;;;;;;;8.15;79.69;100585.65;126299;1099;104159;-80
2021/09/23 03:18:59;;;;;;;13.87;5.93;;;;;;;8.17;79.45;100583.11;126364;1099;104264;-80
2021/09/23 03:21:30;;;;;;;11.03;5.17;;;;;;;8.17;79.49;100586.61;126318;1099;104147;-78
2021/09/23 03:24:01;;;;;;;10.40;5.70;;;;;;;8.19;79.82;100584.95;126246;1099;104204;-80
2021/09/23 03:26:31;;;;;;;11.83;6.03;;;;;;;8.19;79.89;100582.33;126254;1099;104155;-79
2021/09/23 03:29:02;;;;;;;12.77;5.80;;;;;;;8.21;80.00;100583.33;126363;1099;101645;-81
2021/09/23 03:31:34;;;;;;;12.30;5.50;;;;;;;8.22;79.56;100576.36;126328;1099;104345;-81
2021/09/23 03:34:06;;;;;;;12.30;5.40;;;;;;;8.24;80.06;100586.08;126289;1098;104335;-80
2021/09/23 03:36:37;;;;;;;10.93;5.23;;;;;;;8.27;79.99;100590.53;126235;1099;104162;-80
2021/09/23 03:39:08;;;;;;;10.50;5.27;;;;;;;8.25;79.87;100586.97;126347;1097;104185;-81
2021/09/23 03:41:38;;;;;;;8.63;4.53;;;;;;;8.25;80.29;100587.84;126377;1098;104230;-80
2021/09/23 03:44:09;;;;;;;8.40;4.13;;;;;;;8.25;80.16;100581.73;126387;1099;104303;-81
2021/09/23 03:46:40;;;;;;;7.67;4.27;;;;;;;8.26;80.12;100594.88;126102;1099;104290;-80
2021/09/23 03:49:18;;;;;;;7.90;3.95;;;;;;;8.25;79.67;100593.08;126304;1098;104146;-80
2021/09/23 03:51:52;;;;;;;5.17;3.60;;;;;;;8.25;80.19;100603.53;126361;1099;104152;-81
2021/09/23 03:54:28;;;;;;;5.23;3.40;;;;;;;8.24;80.25;100606.99;126280;1099;104324;-81
2021/09/23 03:57:00;;;;;;;5.80;3.40;;;;;;;8.22;79.81;100603.39;126231;1099;104270;-81
2021/09/23 03:59:32;;;;;;;5.53;3.20;;;;;;;8.19;79.90;100613.70;126282;1099;104296;-82
2021/09/23 04:02:03;;;;;;;6.73;3.23;;;;;;;8.18;80.00;100611.94;126318;1098;104315;-80
2021/09/23 04:04:34;;;;;;;6.37;3.30;;;;;;;8.15;80.03;100618.71;126258;1099;104235;-80
2021/09/23 04:07:06;;;;;;;4.20;3.00;;;;;;;8.13;79.62;100618.64;126329;1099;104162;-80
2021/09/23 04:09:44;;;;;;;6.43;3.23;;;;;;;8.10;79.85;100623.72;126375;1097;104573;-81
2021/09/23 04:12:16;;;;;;;6.23;3.00;;;;;;;8.07;79.70;100624.49;126232;1099;101712;-79
2021/09/23 04:14:46;;;;;;;7.10;2.87;;;;;;;8.06;79.64;100624.42;126344;1099;104149;-81
2021/09/23 04:17:18;;;;;;;7.70;3.50;;;;;;;8.06;79.19;100635.76;126209;1099;104178;-81
2021/09/23 04:19:52;;;;;;;4.10;2.80;;;;;;;8.06;79.44;100630.53;126313;1099;104181;-82
2021/09/23 04:22:26;;;;;;;6.40;2.70;;;;;;;8.07;79.76;100628.80;126354;1099;104259;-81
2021/09/23 04:24:59;;;;;;;7.30;3.03;;;;;;;8.10;79.45;100640.32;126324;1099;104153;-80
2021/09/23 04:27:30;;;;;;;3.80;2.67;;;;;;;8.12;79.79;100637.78;126236;1099;104217;-82
2021/09/23 04:30:01;;;;;;;4.47;2.80;;;;;;;8.14;79.67;100636.13;126318;1098;104187;-81
2021/09/23 04:32:32;;;;;;;5.83;3.10;;;;;;;8.14;78.96;100646.58;126368;1099;104143;-81
2021/09/23 04:35:03;;;;;;;3.67;2.67;;;;;;;8.17;79.55;100645.84;126277;1099;104309;-81
2021/09/23 04:37:34;;;;;;;2.80;2.40;;;;;;;8.20;79.45;100635.53;126010;1099;104175;-80
2021/09/23 04:40:06;;;;;;;4.93;2.53;;;;;;;8.20;79.50;100644.26;126243;1099;104145;-82
2021/09/23 04:42:44;;;;;;;3.13;2.37;;;;;;;8.23;79.27;100643.52;126329;1099;104197;-80
2021/09/23 04:45:17;;;;;;;4.80;2.53;;;;;;;8.23;79.47;100644.41;126312;1099;104179;-81
2021/09/23 04:47:49;;;;;;;3.40;2.47;;;;;;;8.26;79.31;100649.78;126361;1099;104242;-79
2021/09/23 04:50:19;;;;;;;3.90;2.30;;;;;;;8.28;79.51;100647.23;126226;1099;104169;-81
2021/09/23 04:52:50;;;;;;;3.90;2.70;;;;;;;8.27;78.60;100651.58;126341;1098;104169;-83
2021/09/23 04:55:21;;;;;;;3.47;2.30;;;;;;;8.31;79.29;100649.11;126239;1097;104229;-83
2021/09/23 04:57:52;;;;;;;8.17;2.90;;;;;;;8.33;79.00;100648.34;126214;1099;104149;-81
2021/09/23 05:00:26;;;;;;;3.33;2.40;;;;;;;8.37;79.26;100652.02;126291;1099;117788;-82
2021/09/23 05:02:59;;;;;;;8.23;2.83;;;;;;;8.40;78.82;100652.16;126262;1099;104268;-82
2021/09/23 05:05:32;;;;;;;3.90;2.70;;;;;;;8.40;78.75;100645.20;126330;1099;104175;-82
2021/09/23 05:08:05;;;;;;;9.43;2.93;;;;;;;8.39;79.27;100642.52;126173;1099;104198;-82
2021/09/23 05:10:38;;;;;;;8.03;3.10;;;;;;;8.40;78.99;100639.97;126194;1099;104137;-82
2021/09/23 05:13:09;;;;;;;;;;;;;;;8.43;78.55;100647.05;126237;1099;104162;-82
2021/09/23 05:15:42;;;;;;;7.50;2.80;;;;;;;8.47;79.12;100646.41;126215;1099;104271;-82
2021/09/23 05:18:16;;;;;;;4.40;2.73;;;;;;;8.49;78.98;100646.48;126145;1099;104252;-81
2021/09/23 05:20:50;;;;;;;9.07;3.07;;;;;;;8.51;78.71;100650.97;126083;1099;104281;-80
2021/09/23 05:23:21;;;;;;;8.50;3.13;;;;;;;8.55;78.42;100660.72;126087;1098;104294;-81
2021/09/23 05:25:52;;;;;;;4.80;2.80;;;;;;;8.58;78.08;100644.29;126093;1099;104178;-80
2021/09/23 05:28:24;;;;;;;8.37;3.10;;;;;;;8.61;78.78;100647.05;126104;1099;104200;-82
2021/09/23 05:31:00;;;;;;;6.55;2.80;;;;;;;8.67;78.87;100651.67;126090;1099;104158;-81
2021/09/23 05:33:33;;;;;;;4.73;2.87;;;;;;;8.68;78.04;100666.52;126140;1099;104278;-80
2021/09/23 05:36:08;;;;;;;6.20;3.30;;;;;;;8.68;77.96;100661.30;126031;1099;104290;-81
2021/09/23 05:38:40;;;;;;;4.00;2.63;;;;;;;8.69;78.68;100666.59;126054;1099;104265;-80
2021/09/23 05:41:14;;;;;;;;;;;;;;;8.69;78.40;100665.71;126013;1099;107410;-80
2021/09/23 05:43:50;;;;;;;5.23;2.77;;;;;;;8.69;78.54;100663.98;126100;1099;104162;-79
2021/09/23 05:46:23;;;;;;;3.72;2.72;;;;;;;8.72;78.55;100668.47;126067;1099;104153;-79
2021/09/23 05:48:59;;;;;;;5.23;2.83;;;;;;;8.75;78.34;100672.11;125956;1099;104171;-79
2021/09/23 05:51:33;;;;;;;5.07;2.80;;;;;;;8.74;78.03;100679.89;126021;1099;119885;-80
2021/09/23 05:54:06;;;;;;;9.00;3.00;;;;;;;8.71;77.85;100677.13;125944;1099;102996;-81
2021/09/23 05:56:41;;;;;;;6.60;3.07;;;;;;;8.70;78.28;100677.98;125931;1099;104249;-80
2021/09/23 05:59:18;;;;;;;6.17;3.50;;;;;;;8.72;77.94;100673.70;126022;1099;104172;-80
2021/09/23 06:01:54;;;;;;;6.90;3.30;;;;;;;8.75;77.93;100681.69;126184;1099;104146;-79
2021/09/23 06:04:28;;;;;;;5.80;3.00;;;;;;;8.77;77.63;100682.64;126239;1099;104275;-80
2021/09/23 06:07:00;;;;;;;7.50;3.10;;;;;;;8.79;77.19;100681.02;126103;1099;104675;-80
2021/09/23 06:09:41;;;;;;;5.27;3.00;;;;;;;8.86;78.04;100680.45;126169;1099;104191;-81
2021/09/23 06:12:18;;;;;;;8.60;3.67;;;;;;;8.96;77.32;100687.91;126106;1099;109780;-82
2021/09/23 06:14:52;;;;;;;7.17;3.50;;;;;;;8.99;77.60;100680.19;126202;1099;101803;-80
2021/09/23 06:17:26;;;;;;;8.23;3.63;;;;;;;9.03;77.71;100682.95;125883;1099;104605;-81
2021/09/23 06:20:00;;;;;;;7.80;3.27;;;;;;;9.12;77.11;100681.63;126182;1099;104434;-79
2021/09/23 06:22:33;;;;;;;7.77;3.30;;;;;;;9.22;77.03;100674.18;126057;1099;104261;-80
2021/09/23 06:25:05;;;;;;;4.00;2.70;;;;;;;9.29;76.38;100681.48;126167;1099;104141;-82
2021/09/23 06:27:39;;;;;;;4.53;3.15;;;;;;;9.33;76.57;100681.69;126291;1099;104178;-82
2021/09/23 06:30:17;;;;;;;6.73;3.10;;;;;;;9.34;76.46;100677.34;126080;1099;104280;-81
2021/09/23 06:32:51;;;;;;;7.87;3.30;;;;;;;9.41;76.64;100676.78;126158;1099;107029;-80
2021/09/23 06:35:28;;;;;;;7.30;3.27;;;;;;;9.52;77.05;100677.22;126114;1099;104245;-81
2021/09/23 06:38:05;;;;;;;7.75;3.40;;;;;;;9.60;76.69;100667.06;126048;1099;104229;-79
2021/09/23 06:40:38;;;;;;;7.90;3.10;;;;;;;9.67;75.72;100671.74;125924;1099;104225;-77
2021/09/23 06:43:09;;;;;;;7.00;3.00;;;;;;;9.76;75.83;100682.61;125909;1099;118982;-77
2021/09/23 06:45:42;;;;;;;6.10;2.90;;;;;;;9.85;75.04;100690.86;125926;1099;104197;-78
2021/09/23 06:48:15;;;;;;;5.00;2.83;;;;;;;9.94;75.07;100678.95;126063;1099;104172;-79
2021/09/23 06:50:48;;;;;;;3.80;2.57;;;;;;;9.99;74.43;100686.19;125997;1099;104210;-78
2021/09/23 06:53:20;;;;;;;4.93;2.97;;;;;;;10.02;73.77;100691.56;126090;1099;104195;-80
2021/09/23 06:55:55;;;;;;;4.53;2.97;;;;;;;10.00;73.72;100687.98;126111;1099;104201;-80
2021/09/23 06:58:28;;;;;;;7.67;3.00;;;;;;;10.01;74.53;100692.38;126216;1099;103980;-80
2021/09/23 07:01:34;;;;;;;7.07;3.33;;;;;;;10.06;73.69;100696.07;126137;1099;104149;-79
2021/09/23 07:04:25;;;;;;;5.30;2.73;;;;;;;10.07;73.01;100683.88;126066;1099;104370;-79
2021/09/23 07:07:11;;;;;;;7.90;3.00;;;;;;;10.10;73.56;100689.25;126256;1099;104200;-79
2021/09/23 07:09:46;;;;;;;5.65;3.10;;;;;;;10.09;73.19;100695.31;126224;1099;104139;-80
2021/09/23 07:12:30;;;;;;;4.87;2.70;;;;;;;10.04;73.95;100689.88;126138;1098;104229;-78
2021/09/23 07:15:07;;;;;;;4.73;3.03;;;;;;;10.03;73.16;100695.95;126163;1099;104143;-79
2021/09/23 07:17:41;;;;;;;6.20;3.70;;;;;;;9.99;72.67;100688.81;126051;1099;104143;-80
2021/09/23 07:20:19;;;;;;;5.33;3.33;;;;;;;10.00;73.29;100687.98;126254;1099;104156;-80
2021/09/23 07:22:59;;;;;;;7.80;3.33;;;;;;;9.99;73.02;100701.03;126243;1099;104140;-81
2021/09/23 07:25:36;;;;;;;8.57;4.20;;;;;;;10.01;73.19;100701.98;126144;1099;104175;-80
2021/09/23 07:28:15;;;;;;;6.57;3.67;;;;;;;10.07;73.20;100699.61;126174;1099;104143;-80
2021/09/23 07:30:47;;;;;;;5.33;3.20;;;;;;;10.16;73.12;100699.07;126084;1099;104223;-79
2021/09/23 07:33:21;;;;;;;6.42;3.80;;;;;;;10.22;72.34;100705.48;126173;1099;104137;-79
2021/09/23 07:35:58;;;;;;;6.60;3.80;;;;;;;10.24;72.49;100705.55;126251;1099;104262;-81
2021/09/23 07:38:34;;;;;;;10.80;4.40;;;;;;;10.21;72.67;100708.04;126114;1099;104389;-81
2021/09/23 07:41:10;;;;;;;8.20;4.20;;;;;;;10.20;72.55;100703.62;126157;1099;101861;-81
2021/09/23 07:43:45;;;;;;;11.17;4.73;;;;;;;10.23;72.45;100715.11;126051;1099;104143;-82
2021/09/23 07:46:17;;;;;;;8.67;4.23;;;;;;;10.34;72.42;100718.20;126160;1098;104133;-78
2021/09/23 07:48:53;;;;;;;8.50;4.35;;;;;;;10.35;71.36;100712.14;126118;1099;104165;-81
2021/09/23 07:51:30;;;;;;;9.10;4.30;;;;;;;10.35;70.85;100709.52;126085;1099;104698;-79
2021/09/23 07:54:04;;;;;;;8.47;4.50;;;;;;;10.33;71.13;100699.78;126193;1099;104143;-78
2021/09/23 07:56:38;;;;;;;10.27;4.27;;;;;;;10.36;71.64;100707.78;126134;1099;104235;-80
2021/09/23 07:59:12;;;;;;;8.43;4.50;;;;;;;10.39;71.65;100702.66;126174;1099;104165;-79
2021/09/23 08:01:45;;;;;;;7.55;4.08;;;;;;;10.41;71.23;100701.89;126269;1099;104223;-81
2021/09/23 08:04:18;;;;;;;7.20;4.10;;;;;;;10.38;71.62;100696.52;126090;1099;104185;-79
2021/09/23 08:06:52;;;;;;;9.93;4.60;;;;;;;10.38;71.50;100691.28;125958;1099;104009;-80
2021/09/23 08:09:43;;;;;;;9.20;4.80;;;;;;;10.48;71.60;100691.64;125949;1099;104144;-81
2021/09/23 08:12:23;;;;;;;9.20;4.13;;;;;;;10.69;71.66;100688.93;125652;1099;104137;-80
2021/09/23 08:15:11;;;;;;;10.23;4.80;;;;;;;10.91;71.82;100688.03;125999;1099;119024;-81
2021/09/23 08:18:12;;;;;;;7.57;4.07;;;;;;;11.22;71.31;100681.25;126043;1099;104223;-80
2021/09/23 08:21:01;;;;;;;8.13;4.33;;;;;;;11.47;70.80;100677.78;126190;1099;104137;-79
2021/09/23 08:23:38;;;;;;;7.07;4.13;;;;;;;11.61;70.53;100683.48;126143;1099;104173;-81
2021/09/23 08:26:12;;;;;;;9.37;3.77;;;;;;;11.68;70.12;100682.88;126200;1099;104143;-80
2021/09/23 08:28:55;;;;;;;7.53;4.00;;;;;;;11.70;69.36;100681.17;126164;1099;104194;-81
2021/09/23 08:31:28;;;;;;;5.67;3.80;;;;;;;11.62;69.00;100678.28;126190;1099;104192;-82
2021/09/23 08:34:05;;;;;;;7.17;3.83;;;;;;;11.49;67.96;100676.09;126192;1099;104213;-80
2021/09/23 08:36:42;;;;;;;8.03;4.23;;;;;;;11.39;68.49;100685.40;126122;1099;104146;-81
2021/09/23 08:39:21;;;;;;;8.33;4.00;;;;;;;11.34;68.23;100679.06;126203;1099;104195;-81
2021/09/23 08:41:56;;;;;;;6.43;3.97;;;;;;;11.41;68.72;100673.20;126275;1099;104213;-81
2021/09/23 08:44:32;;;;;;;7.67;3.87;;;;;;;11.43;68.64;100674.13;126058;1099;104245;-80
2021/09/23 08:47:10;;;;;;;7.17;3.73;;;;;;;11.40;67.30;100675.77;126207;1099;104214;-82
2021/09/23 08:49:46;;;;;;;6.17;3.67;;;;;;;11.37;67.95;100671.30;126100;1099;104197;-83
2021/09/23 08:52:19;;;;;;;6.30;3.60;;;;;;;11.39;67.83;100680.14;126141;1099;104149;-81
2021/09/23 08:54:57;;;;;;;8.90;3.40;;;;;;;11.29;67.59;100681.53;126072;1099;104239;-82
2021/09/23 08:57:29;;;;;;;6.60;3.53;;;;;;;11.20;67.82;100680.31;126031;1099;104236;-80
2021/09/23 09:00:08;;;;;;;7.17;3.27;;;;;;;11.07;67.67;100678.98;126131;1099;104156;-80
2021/09/23 09:02:45;;;;;;;6.90;3.83;;;;;;;10.94;67.85;100682.90;126071;1099;104149;-81
2021/09/23 09:05:34;;;;;;;6.50;3.90;;;;;;;10.85;67.85;100678.19;126112;1099;104204;-81
2021/09/23 09:08:28;;;;;;;7.10;3.70;;;;;;;10.85;67.90;100685.18;126236;1099;104274;-81
2021/09/23 09:11:14;;;;;;;9.17;4.30;;;;;;;10.75;68.32;100668.17;125995;1099;104357;-80
2021/09/23 09:13:52;;;;;;;9.17;4.40;;;;;;;10.85;68.20;100687.80;126187;1098;104137;-81
2021/09/23 09:16:30;;;;;;;8.47;4.73;;;;;;;10.83;67.83;100695.63;126221;1099;111698;-82
2021/09/23 09:19:10;;;;;;;9.83;4.87;;;;;;;10.82;67.73;100685.95;126252;1097;104143;-80
2021/09/23 09:21:46;;;;;;;13.43;4.97;;;;;;;10.82;67.92;100688.58;126070;1099;104168;-81
2021/09/23 09:24:19;;;;;;;9.73;5.20;;;;;;;10.91;67.26;100688.03;126149;1099;104216;-81
2021/09/23 09:26:54;;;;;;;10.20;5.20;;;;;;;11.03;67.58;100680.62;126267;1098;104140;-81
2021/09/23 09:29:32;;;;;;;10.45;4.67;;;;;;;11.17;67.76;100680.20;126125;1099;104139;-83
2021/09/23 09:32:24;;;;;;;8.97;5.07;;;;;;;11.30;67.46;100688.58;126174;1099;104185;-84
2021/09/23 09:35:11;;;;;;;9.20;4.87;;;;;;;11.48;67.57;100683.09;126053;1099;104321;-80
2021/09/23 09:38:06;;;;;;;12.87;4.90;;;;;;;11.56;67.14;100685.08;126015;1099;104396;-80
2021/09/23 09:40:43;;;;;;;8.07;4.30;;;;;;;11.51;66.25;100687.55;126039;1097;104223;-81
2021/09/23 09:43:23;;;;;;;11.37;5.03;;;;;;;11.46;66.55;100683.88;126099;1097;104245;-80
2021/09/23 09:45:59;;;;;;;10.37;4.87;;;;;;;11.41;66.36;100688.08;126110;1099;104136;-81
2021/09/23 09:48:36;;;;;;;7.63;4.57;;;;;;;11.36;66.66;100692.25;126181;1099;104187;-81
2021/09/23 09:51:40;;;;;;;7.87;4.30;;;;;;;11.21;66.24;100693.50;126225;1099;104354;-80
2021/09/23 09:54:23;;;;;;;8.40;4.53;;;;;;;11.09;66.62;100698.30;126177;1099;102790;-81
2021/09/23 09:57:04;;;;;;;8.57;4.30;;;;;;;11.07;66.40;100700.88;126077;1099;104147;-80
2021/09/23 09:59:39;;;;;;;9.63;4.23;;;;;;;11.16;66.42;100695.08;126073;1099;104169;-81
2021/09/23 10:02:21;;;;;;;7.07;4.00;;;;;;;11.29;66.41;100688.53;126215;1099;104146;-82
2021/09/23 10:04:59;;;;;;;10.30;4.63;;;;;;;11.50;65.59;100691.92;126198;1099;104150;-80
2021/09/23 10:07:46;;;;;;;10.23;3.80;;;;;;;11.64;65.75;100681.88;125994;1099;104207;-82
2021/09/23 10:10:24;;;;;;;9.00;4.23;;;;;;;11.79;65.86;100684.12;126102;1099;104153;-82
2021/09/23 10:13:01;;;;;;;7.63;4.00;;;;;;;11.89;66.14;100680.09;126165;1099;104194;-81
2021/09/23 10:15:38;;;;;;;9.00;4.03;;;;;;;11.86;64.64;100690.50;126197;1099;104168;-80
2021/09/23 10:18:13;;;;;;;7.87;3.93;;;;;;;11.73;64.83;100677.77;125936;1099;104439;-80
2021/09/23 10:20:49;;;;;;;8.07;4.00;;;;;;;11.64;65.20;100679.25;126028;1099;104245;-82
2021/09/23 10:23:31;;;;;;;7.72;4.12;;;;;;;11.69;65.22;100676.78;126066;1099;104175;-81
2021/09/23 10:26:06;;;;;;;9.67;4.07;;;;;;;11.68;64.56;100685.50;126089;1098;104630;-80
2021/09/23 10:28:45;;;;;;;11.23;4.63;;;;;;;11.69;65.06;100682.04;126132;1099;104140;-82
2021/09/23 10:31:33;;;;;;;8.13;3.90;;;;;;;11.66;64.92;100690.70;126143;1099;104201;-80
2021/09/23 10:34:10;;;;;;;8.20;3.97;;;;;;;11.69;64.21;100697.81;126264;1099;104220;-81
2021/09/23 10:36:46;;;;;;;8.60;3.60;;;;;;;11.77;64.68;100685.81;126091;1099;104271;-79
2021/09/23 10:39:22;;;;;;;7.50;3.53;;;;;;;11.93;64.63;100683.73;126045;1099;104147;-80
2021/09/23 10:42:00;;;;;;;8.40;3.73;;;;;;;12.01;64.55;100674.34;126026;1099;104242;-80
2021/09/23 10:44:34;;;;;;;8.03;3.63;;;;;;;11.93;63.01;100681.98;125960;1099;104175;-79
2021/09/23 10:47:09;;;;;;;8.53;3.80;;;;;;;11.85;63.85;100683.44;125818;1099;104220;-80
2021/09/23 10:49:43;;;;;;;7.90;3.80;;;;;;;11.80;64.28;100677.14;126054;1099;104304;-80
2021/09/23 10:52:19;;;;;;;13.87;4.17;;;;;;;11.77;64.13;100675.30;126134;1099;104227;-82
2021/09/23 10:54:58;;;;;;;10.87;4.17;;;;;;;11.65;63.63;100685.39;126156;1099;104140;-84
2021/09/23 10:57:33;;;;;;;9.73;4.33;;;;;;;11.54;64.36;100673.63;126017;1099;104299;-81
2021/09/23 11:00:10;;;;;;;10.27;4.00;;;;;;;11.51;64.65;100677.03;126117;1099;104245;-82
2021/09/23 11:02:46;;;;;;;12.67;3.90;;;;;;;11.59;64.57;100690.44;126282;1099;104147;-81
2021/09/23 11:05:21;;;;;;;13.67;4.43;;;;;;;11.68;64.55;100677.61;126230;1099;104197;-84
2021/09/23 11:07:56;;;;;;;11.13;4.23;;;;;;;11.75;64.51;100676.99;126239;1098;104165;-84
2021/09/23 11:10:30;;;;;;;10.70;4.90;;;;;;;11.79;64.68;100670.97;126354;1099;104175;-82
2021/09/23 11:13:08;;;;;;;10.13;4.47;;;;;;;11.81;64.64;100676.28;126145;1099;104248;-81
2021/09/23 11:15:43;;;;;;;10.57;4.20;;;;;;;11.83;64.54;100674.63;126148;1097;104210;-81
2021/09/23 11:18:20;;;;;;;7.20;4.20;;;;;;;11.91;64.29;100672.25;126242;1097;104139;-80
2021/09/23 11:20:54;;;;;;;10.87;4.53;;;;;;;11.99;64.13;100669.04;126023;1099;104242;-79
2021/09/23 11:23:29;;;;;;;10.00;4.40;;;;;;;12.07;63.62;100665.78;125968;1099;104246;-80
2021/09/23 11:26:04;;;;;;;11.83;4.20;;;;;;;12.20;63.62;100660.95;125820;1099;104197;-79
2021/09/23 11:31:47;;;;;;;6.07;3.50;;;;;;;12.36;62.28;100661.44;126022;1097;104293;-80
2021/09/23 11:34:39;;;;;;;5.50;3.50;;;;;;;12.39;62.58;100669.43;126009;1099;104240;-77
2021/09/23 11:37:12;;;;;;;9.73;3.40;;;;;;;12.45;61.81;100658.17;126001;1099;104181;-78
2021/09/23 11:40:07;;;;;;;6.43;3.17;;;;;;;12.55;62.75;100657.63;126159;1099;104130;-79
2021/09/23 11:42:44;;;;;;;7.25;3.20;;;;;;;12.56;61.41;100649.77;126158;1099;104312;-79
2021/09/23 11:45:21;;;;;;;6.13;3.30;;;;;;;12.59;61.41;100652.50;126112;1097;104251;-80
2021/09/23 11:48:07;;;;;;;5.77;3.13;;;;;;;12.59;61.29;100647.23;126014;1099;104140;-80
2021/09/23 11:50:45;;;;;;;6.10;3.40;;;;;;;12.53;60.00;100660.20;126147;1099;104146;-80
2021/09/23 11:53:21;;;;;;;7.40;3.00;;;;;;;12.38;60.56;100652.73;126031;1099;104214;-79